sensor_id;sensor_type;location;lat;lon;timestamp;P1;durP1;ratioP1;P2;durP2;ratioP2
48853;SDS011;34673;52.808;17.856;2023-03-14T00:02:06;6.35;;;3.30;;
48853;SDS011;34673;52.808;17.856;2023-03-14T00:04:34;8.85;;;3.63;;
48853;SDS011;34673;52.808;17.856;2023-03-14T00:07:01;8.88;;;3.70;;
48853;SDS011;34673;52.808;17.856;2023-03-14T00:09:29;6.03;;;3.50;;
48853;SDS011;34673;52.808;17.856;2023-03-14T00:11:56;6.60;;;3.25;;
48853;SDS011;34673;52.808;17.856;2023-03-14T00:14:23;7.30;;;3.13;;
48853;SDS011;34673;52.808;17.856;2023-03-14T00:16:51;7.25;;;3.13;;
48853;SDS011;34673;52.808;17.856;2023-03-14T00:19:18;7.22;;;2.80;;
48853;SDS011;34673;52.808;17.856;2023-03-14T00:21:45;7.72;;;2.67;;
48853;SDS011;34673;52.808;17.856;2023-03-14T00:24:13;8.10;;;3.22;;
48853;SDS011;34673;52.808;17.856;2023-03-14T00:26:40;6.45;;;2.80;;
48853;SDS011;34673;52.808;17.856;2023-03-14T00:29:07;6.38;;;2.83;;
48853;SDS011;34673;52.808;17.856;2023-03-14T00:31:35;6.68;;;3.10;;
48853;SDS011;34673;52.808;17.856;2023-03-14T00:34:02;7.10;;;2.90;;
48853;SDS011;34673;52.808;17.856;2023-03-14T00:36:31;6.38;;;2.90;;
48853;SDS011;34673;52.808;17.856;2023-03-14T00:38:58;5.97;;;2.60;;
48853;SDS011;34673;52.808;17.856;2023-03-14T00:41:25;5.07;;;2.78;;
48853;SDS011;34673;52.808;17.856;2023-03-14T00:43:52;6.38;;;2.70;;
48853;SDS011;34673;52.808;17.856;2023-03-14T00:46:20;6.35;;;2.80;;
48853;SDS011;34673;52.808;17.856;2023-03-14T00:48:47;9.18;;;2.95;;
48853;SDS011;34673;52.808;17.856;2023-03-14T00:51:15;4.68;;;2.47;;
48853;SDS011;34673;52.808;17.856;2023-03-14T00:53:43;5.05;;;2.58;;
48853;SDS011;34673;52.808;17.856;2023-03-14T00:56:11;5.75;;;2.58;;
48853;SDS011;34673;52.808;17.856;2023-03-14T00:58:39;5.03;;;2.33;;
48853;SDS011;34673;52.808;17.856;2023-03-14T01:03:34;5.70;;;2.53;;
48853;SDS011;34673;52.808;17.856;2023-03-14T01:06:08;4.45;;;2.22;;
48853;SDS011;34673;52.808;17.856;2023-03-14T01:08:37;5.82;;;2.20;;
48853;SDS011;34673;52.808;17.856;2023-03-14T01:11:05;4.60;;;2.15;;
48853;SDS011;34673;52.808;17.856;2023-03-14T01:13:34;5.05;;;2.33;;
48853;SDS011;34673;52.808;17.856;2023-03-14T01:16:02;6.28;;;2.92;;
48853;SDS011;34673;52.808;17.856;2023-03-14T01:18:36;4.72;;;2.10;;
48853;SDS011;34673;52.808;17.856;2023-03-14T01:21:09;4.45;;;2.20;;
48853;SDS011;34673;52.808;17.856;2023-03-14T01:23:39;5.30;;;2.40;;
48853;SDS011;34673;52.808;17.856;2023-03-14T01:26:11;4.60;;;2.10;;
48853;SDS011;34673;52.808;17.856;2023-03-14T01:28:39;4.20;;;2.10;;
48853;SDS011;34673;52.808;17.856;2023-03-14T01:31:08;5.40;;;2.13;;
48853;SDS011;34673;52.808;17.856;2023-03-14T01:33:36;3.58;;;1.77;;
48853;SDS011;34673;52.808;17.856;2023-03-14T01:36:05;3.85;;;1.90;;
48853;SDS011;34673;52.808;17.856;2023-03-14T01:38:33;4.45;;;1.98;;
48853;SDS011;34673;52.808;17.856;2023-03-14T01:41:02;3.75;;;1.90;;
48853;SDS011;34673;52.808;17.856;2023-03-14T01:43:29;3.90;;;1.90;;
48853;SDS011;34673;52.808;17.856;2023-03-14T01:48:40;5.78;;;1.52;;
48853;SDS011;34673;52.808;17.856;2023-03-14T01:51:14;4.82;;;1.85;;
48853;SDS011;34673;52.808;17.856;2023-03-14T01:54:12;3.20;;;1.63;;
48853;SDS011;34673;52.808;17.856;2023-03-14T01:56:47;2.88;;;1.40;;
48853;SDS011;34673;52.808;17.856;2023-03-14T01:59:19;4.40;;;1.70;;
48853;SDS011;34673;52.808;17.856;2023-03-14T02:01:46;3.17;;;1.60;;
48853;SDS011;34673;52.808;17.856;2023-03-14T02:04:16;2.20;;;1.40;;
48853;SDS011;34673;52.808;17.856;2023-03-14T02:07:07;3.70;;;1.50;;
48853;SDS011;34673;52.808;17.856;2023-03-14T02:09:37;3.58;;;1.50;;
48853;SDS011;34673;52.808;17.856;2023-03-14T02:14:43;2.60;;;1.30;;
48853;SDS011;34673;52.808;17.856;2023-03-14T02:17:42;3.85;;;1.35;;
48853;SDS011;34673;52.808;17.856;2023-03-14T02:27:06;3.00;;;1.52;;
48853;SDS011;34673;52.808;17.856;2023-03-14T02:30:00;3.42;;;1.40;;
48853;SDS011;34673;52.808;17.856;2023-03-14T02:32:33;3.55;;;1.45;;
48853;SDS011;34673;52.808;17.856;2023-03-14T02:35:09;3.05;;;1.63;;
48853;SDS011;34673;52.808;17.856;2023-03-14T02:37:47;4.68;;;1.58;;
48853;SDS011;34673;52.808;17.856;2023-03-14T02:40:21;2.65;;;1.52;;
48853;SDS011;34673;52.808;17.856;2023-03-14T02:42:50;3.58;;;1.45;;
48853;SDS011;34673;52.808;17.856;2023-03-14T02:47:58;3.58;;;1.40;;
48853;SDS011;34673;52.808;17.856;2023-03-14T02:50:31;3.25;;;1.30;;
48853;SDS011;34673;52.808;17.856;2023-03-14T02:53:00;3.33;;;1.10;;
48853;SDS011;34673;52.808;17.856;2023-03-14T02:55:28;1.92;;;1.10;;
48853;SDS011;34673;52.808;17.856;2023-03-14T02:57:58;1.70;;;0.98;;
48853;SDS011;34673;52.808;17.856;2023-03-14T03:00:25;2.63;;;1.17;;
48853;SDS011;34673;52.808;17.856;2023-03-14T03:02:53;2.45;;;1.10;;
48853;SDS011;34673;52.808;17.856;2023-03-14T03:05:20;3.95;;;1.20;;
48853;SDS011;34673;52.808;17.856;2023-03-14T03:07:47;3.03;;;1.10;;
48853;SDS011;34673;52.808;17.856;2023-03-14T03:10:14;2.33;;;1.20;;
48853;SDS011;34673;52.808;17.856;2023-03-14T03:12:41;4.32;;;1.20;;
48853;SDS011;34673;52.808;17.856;2023-03-14T03:15:09;2.28;;;1.20;;
48853;SDS011;34673;52.808;17.856;2023-03-14T03:17:37;2.63;;;1.50;;
48853;SDS011;34673;52.808;17.856;2023-03-14T03:20:05;2.90;;;1.70;;
48853;SDS011;34673;52.808;17.856;2023-03-14T03:22:37;3.50;;;1.75;;
48853;SDS011;34673;52.808;17.856;2023-03-14T03:25:06;2.63;;;1.65;;
48853;SDS011;34673;52.808;17.856;2023-03-14T03:27:34;4.72;;;2.00;;
48853;SDS011;34673;52.808;17.856;2023-03-14T03:30:04;3.33;;;1.98;;
48853;SDS011;34673;52.808;17.856;2023-03-14T03:32:33;4.75;;;2.33;;
48853;SDS011;34673;52.808;17.856;2023-03-14T03:35:02;3.65;;;2.33;;
48853;SDS011;34673;52.808;17.856;2023-03-14T03:37:32;3.92;;;2.22;;
48853;SDS011;34673;52.808;17.856;2023-03-14T03:39:59;3.78;;;2.25;;
48853;SDS011;34673;52.808;17.856;2023-03-14T03:42:27;3.38;;;2.22;;
48853;SDS011;34673;52.808;17.856;2023-03-14T03:44:54;4.38;;;2.45;;
48853;SDS011;34673;52.808;17.856;2023-03-14T03:47:22;5.53;;;2.60;;
48853;SDS011;34673;52.808;17.856;2023-03-14T03:49:49;5.25;;;2.83;;
48853;SDS011;34673;52.808;17.856;2023-03-14T03:52:17;6.30;;;2.90;;
48853;SDS011;34673;52.808;17.856;2023-03-14T03:54:44;4.72;;;2.50;;
48853;SDS011;34673;52.808;17.856;2023-03-14T03:57:12;6.47;;;2.92;;
48853;SDS011;34673;52.808;17.856;2023-03-14T03:59:40;7.35;;;3.10;;
48853;SDS011;34673;52.808;17.856;2023-03-14T04:02:07;5.90;;;2.70;;
48853;SDS011;34673;52.808;17.856;2023-03-14T04:04:35;5.88;;;3.10;;
48853;SDS011;34673;52.808;17.856;2023-03-14T04:07:03;5.38;;;3.13;;
48853;SDS011;34673;52.808;17.856;2023-03-14T04:09:31;6.18;;;3.05;;
48853;SDS011;34673;52.808;17.856;2023-03-14T04:12:09;6.43;;;3.35;;
48853;SDS011;34673;52.808;17.856;2023-03-14T04:15:00;5.60;;;3.30;;
48853;SDS011;34673;52.808;17.856;2023-03-14T04:17:29;5.50;;;3.22;;
48853;SDS011;34673;52.808;17.856;2023-03-14T04:19:56;4.93;;;3.03;;
48853;SDS011;34673;52.808;17.856;2023-03-14T04:22:31;5.10;;;3.15;;
48853;SDS011;34673;52.808;17.856;2023-03-14T04:24:59;5.28;;;3.25;;
48853;SDS011;34673;52.808;17.856;2023-03-14T04:27:26;5.57;;;2.75;;
48853;SDS011;34673;52.808;17.856;2023-03-14T04:29:54;4.93;;;2.90;;
48853;SDS011;34673;52.808;17.856;2023-03-14T04:32:38;6.82;;;3.00;;
48853;SDS011;34673;52.808;17.856;2023-03-14T04:35:06;5.75;;;3.20;;
48853;SDS011;34673;52.808;17.856;2023-03-14T04:37:34;5.68;;;3.10;;
48853;SDS011;34673;52.808;17.856;2023-03-14T04:40:02;4.43;;;2.67;;
48853;SDS011;34673;52.808;17.856;2023-03-14T04:42:33;5.05;;;2.90;;
48853;SDS011;34673;52.808;17.856;2023-03-14T04:45:00;5.20;;;2.85;;
48853;SDS011;34673;52.808;17.856;2023-03-14T04:47:29;5.53;;;2.75;;
48853;SDS011;34673;52.808;17.856;2023-03-14T04:49:58;5.53;;;2.78;;
48853;SDS011;34673;52.808;17.856;2023-03-14T04:52:25;5.45;;;2.90;;
48853;SDS011;34673;52.808;17.856;2023-03-14T04:54:52;4.47;;;2.58;;
48853;SDS011;34673;52.808;17.856;2023-03-14T04:57:22;7.20;;;2.97;;
48853;SDS011;34673;52.808;17.856;2023-03-14T04:59:50;4.90;;;2.80;;
48853;SDS011;34673;52.808;17.856;2023-03-14T05:02:49;5.38;;;2.90;;
48853;SDS011;34673;52.808;17.856;2023-03-14T05:05:26;5.38;;;2.72;;
48853;SDS011;34673;52.808;17.856;2023-03-14T05:08:05;6.75;;;3.28;;
48853;SDS011;34673;52.808;17.856;2023-03-14T05:11:02;7.68;;;3.00;;
48853;SDS011;34673;52.808;17.856;2023-03-14T05:13:38;7.35;;;2.88;;
48853;SDS011;34673;52.808;17.856;2023-03-14T05:16:29;5.15;;;2.88;;
48853;SDS011;34673;52.808;17.856;2023-03-14T05:19:16;7.80;;;3.40;;
48853;SDS011;34673;52.808;17.856;2023-03-14T05:22:02;8.90;;;3.40;;
48853;SDS011;34673;52.808;17.856;2023-03-14T05:24:48;5.97;;;2.92;;
48853;SDS011;34673;52.808;17.856;2023-03-14T05:27:35;7.70;;;3.53;;
48853;SDS011;34673;52.808;17.856;2023-03-14T05:30:14;4.88;;;2.95;;
48853;SDS011;34673;52.808;17.856;2023-03-14T05:33:17;5.97;;;2.97;;
48853;SDS011;34673;52.808;17.856;2023-03-14T05:36:01;5.60;;;2.85;;
48853;SDS011;34673;52.808;17.856;2023-03-14T05:38:40;8.35;;;3.08;;
48853;SDS011;34673;52.808;17.856;2023-03-14T05:41:31;6.15;;;3.47;;
48853;SDS011;34673;52.808;17.856;2023-03-14T05:44:18;6.25;;;3.20;;
48853;SDS011;34673;52.808;17.856;2023-03-14T05:47:04;6.38;;;3.20;;
48853;SDS011;34673;52.808;17.856;2023-03-14T05:49:42;7.32;;;3.38;;
48853;SDS011;34673;52.808;17.856;2023-03-14T05:52:32;5.22;;;2.90;;
48853;SDS011;34673;52.808;17.856;2023-03-14T05:55:19;9.65;;;3.75;;
48853;SDS011;34673;52.808;17.856;2023-03-14T05:58:07;5.18;;;3.03;;
48853;SDS011;34673;52.808;17.856;2023-03-14T06:00:34;5.80;;;3.10;;
48853;SDS011;34673;52.808;17.856;2023-03-14T06:03:15;5.32;;;2.83;;
48853;SDS011;34673;52.808;17.856;2023-03-14T06:05:46;7.80;;;3.10;;
48853;SDS011;34673;52.808;17.856;2023-03-14T06:08:13;7.93;;;3.65;;
48853;SDS011;34673;52.808;17.856;2023-03-14T06:10:44;7.13;;;3.58;;
48853;SDS011;34673;52.808;17.856;2023-03-14T06:13:11;8.00;;;3.53;;
48853;SDS011;34673;52.808;17.856;2023-03-14T06:15:38;7.60;;;3.55;;
48853;SDS011;34673;52.808;17.856;2023-03-14T06:18:06;7.90;;;3.50;;
48853;SDS011;34673;52.808;17.856;2023-03-14T06:20:37;6.95;;;3.35;;
48853;SDS011;34673;52.808;17.856;2023-03-14T06:23:10;6.65;;;3.38;;
48853;SDS011;34673;52.808;17.856;2023-03-14T06:25:37;6.60;;;3.50;;
48853;SDS011;34673;52.808;17.856;2023-03-14T06:28:05;6.18;;;2.95;;
48853;SDS011;34673;52.808;17.856;2023-03-14T06:30:32;8.32;;;3.58;;
48853;SDS011;34673;52.808;17.856;2023-03-14T06:33:00;7.90;;;3.50;;
48853;SDS011;34673;52.808;17.856;2023-03-14T06:35:28;7.22;;;3.55;;
48853;SDS011;34673;52.808;17.856;2023-03-14T06:37:55;6.60;;;3.50;;
48853;SDS011;34673;52.808;17.856;2023-03-14T06:40:22;6.97;;;3.40;;
48853;SDS011;34673;52.808;17.856;2023-03-14T06:42:54;6.75;;;3.25;;
48853;SDS011;34673;52.808;17.856;2023-03-14T06:45:22;5.85;;;3.67;;
48853;SDS011;34673;52.808;17.856;2023-03-14T06:47:51;6.57;;;3.35;;
48853;SDS011;34673;52.808;17.856;2023-03-14T06:50:22;6.88;;;3.25;;
48853;SDS011;34673;52.808;17.856;2023-03-14T06:52:50;8.32;;;3.30;;
48853;SDS011;34673;52.808;17.856;2023-03-14T06:55:21;6.10;;;3.47;;
48853;SDS011;34673;52.808;17.856;2023-03-14T06:57:49;6.90;;;3.38;;
48853;SDS011;34673;52.808;17.856;2023-03-14T07:00:17;7.90;;;3.67;;
48853;SDS011;34673;52.808;17.856;2023-03-14T07:02:44;7.53;;;3.40;;
48853;SDS011;34673;52.808;17.856;2023-03-14T07:05:28;6.93;;;3.55;;
48853;SDS011;34673;52.808;17.856;2023-03-14T07:07:55;7.93;;;3.75;;
48853;SDS011;34673;52.808;17.856;2023-03-14T07:10:22;6.10;;;3.83;;
48853;SDS011;34673;52.808;17.856;2023-03-14T07:12:50;8.32;;;3.22;;
48853;SDS011;34673;52.808;17.856;2023-03-14T07:15:21;9.60;;;3.55;;
48853;SDS011;34673;52.808;17.856;2023-03-14T07:17:54;8.13;;;3.38;;
48853;SDS011;34673;52.808;17.856;2023-03-14T07:20:22;6.82;;;3.22;;
48853;SDS011;34673;52.808;17.856;2023-03-14T07:22:50;5.85;;;3.10;;
48853;SDS011;34673;52.808;17.856;2023-03-14T07:25:25;6.25;;;3.20;;
48853;SDS011;34673;52.808;17.856;2023-03-14T07:27:53;5.25;;;2.88;;
48853;SDS011;34673;52.808;17.856;2023-03-14T07:30:20;6.80;;;3.25;;
48853;SDS011;34673;52.808;17.856;2023-03-14T07:32:47;7.10;;;3.30;;
48853;SDS011;34673;52.808;17.856;2023-03-14T07:35:15;5.55;;;2.90;;
48853;SDS011;34673;52.808;17.856;2023-03-14T07:37:42;6.13;;;2.88;;
48853;SDS011;34673;52.808;17.856;2023-03-14T07:40:11;7.15;;;2.95;;
48853;SDS011;34673;52.808;17.856;2023-03-14T07:42:42;5.43;;;3.08;;
48853;SDS011;34673;52.808;17.856;2023-03-14T07:45:24;6.13;;;2.78;;
48853;SDS011;34673;52.808;17.856;2023-03-14T07:47:53;7.53;;;3.53;;
48853;SDS011;34673;52.808;17.856;2023-03-14T07:50:24;5.18;;;2.67;;
48853;SDS011;34673;52.808;17.856;2023-03-14T07:52:53;5.97;;;3.17;;
48853;SDS011;34673;52.808;17.856;2023-03-14T07:55:21;6.65;;;2.95;;
48853;SDS011;34673;52.808;17.856;2023-03-14T07:57:48;7.78;;;2.95;;
48853;SDS011;34673;52.808;17.856;2023-03-14T08:00:15;5.40;;;2.85;;
48853;SDS011;34673;52.808;17.856;2023-03-14T08:02:44;6.25;;;3.08;;
48853;SDS011;34673;52.808;17.856;2023-03-14T08:05:11;6.85;;;2.85;;
48853;SDS011;34673;52.808;17.856;2023-03-14T08:07:38;5.15;;;2.75;;
48853;SDS011;34673;52.808;17.856;2023-03-14T08:10:06;4.93;;;2.70;;
48853;SDS011;34673;52.808;17.856;2023-03-14T08:12:34;5.85;;;2.75;;
48853;SDS011;34673;52.808;17.856;2023-03-14T08:15:01;4.85;;;2.72;;
48853;SDS011;34673;52.808;17.856;2023-03-14T08:17:28;5.35;;;2.70;;
48853;SDS011;34673;52.808;17.856;2023-03-14T08:19:55;4.88;;;2.72;;
48853;SDS011;34673;52.808;17.856;2023-03-14T08:22:23;5.03;;;2.15;;
48853;SDS011;34673;52.808;17.856;2023-03-14T08:24:50;5.85;;;2.55;;
48853;SDS011;34673;52.808;17.856;2023-03-14T08:27:17;5.03;;;2.50;;
48853;SDS011;34673;52.808;17.856;2023-03-14T08:29:44;3.60;;;2.10;;
48853;SDS011;34673;52.808;17.856;2023-03-14T08:32:11;4.97;;;2.50;;
48853;SDS011;34673;52.808;17.856;2023-03-14T08:34:38;5.28;;;2.20;;
48853;SDS011;34673;52.808;17.856;2023-03-14T08:37:07;5.30;;;2.45;;
48853;SDS011;34673;52.808;17.856;2023-03-14T08:39:51;6.50;;;2.65;;
48853;SDS011;34673;52.808;17.856;2023-03-14T08:42:18;4.55;;;2.22;;
48853;SDS011;34673;52.808;17.856;2023-03-14T08:44:45;4.40;;;2.17;;
48853;SDS011;34673;52.808;17.856;2023-03-14T08:47:13;5.55;;;2.13;;
48853;SDS011;34673;52.808;17.856;2023-03-14T08:49:40;3.72;;;2.00;;
48853;SDS011;34673;52.808;17.856;2023-03-14T08:52:07;4.70;;;1.90;;
48853;SDS011;34673;52.808;17.856;2023-03-14T08:54:35;3.72;;;2.20;;
48853;SDS011;34673;52.808;17.856;2023-03-14T08:57:02;4.45;;;2.22;;
48853;SDS011;34673;52.808;17.856;2023-03-14T08:59:29;4.30;;;2.55;;
48853;SDS011;34673;52.808;17.856;2023-03-14T09:01:56;5.82;;;2.42;;
48853;SDS011;34673;52.808;17.856;2023-03-14T09:04:23;5.53;;;2.30;;
48853;SDS011;34673;52.808;17.856;2023-03-14T09:06:51;4.80;;;2.15;;
48853;SDS011;34673;52.808;17.856;2023-03-14T09:09:18;4.72;;;1.98;;
48853;SDS011;34673;52.808;17.856;2023-03-14T09:11:45;4.22;;;2.30;;
48853;SDS011;34673;52.808;17.856;2023-03-14T09:14:12;5.43;;;2.63;;
48853;SDS011;34673;52.808;17.856;2023-03-14T09:16:40;6.32;;;2.53;;
48853;SDS011;34673;52.808;17.856;2023-03-14T09:19:07;5.90;;;2.83;;
48853;SDS011;34673;52.808;17.856;2023-03-14T09:21:34;5.07;;;1.88;;
48853;SDS011;34673;52.808;17.856;2023-03-14T09:24:02;4.00;;;1.95;;
48853;SDS011;34673;52.808;17.856;2023-03-14T09:26:29;4.25;;;2.08;;
48853;SDS011;34673;52.808;17.856;2023-03-14T09:28:56;4.55;;;1.92;;
48853;SDS011;34673;52.808;17.856;2023-03-14T09:31:24;5.20;;;2.15;;
48853;SDS011;34673;52.808;17.856;2023-03-14T09:33:51;5.07;;;1.88;;
48853;SDS011;34673;52.808;17.856;2023-03-14T09:36:18;5.97;;;2.10;;
48853;SDS011;34673;52.808;17.856;2023-03-14T09:38:46;4.68;;;1.90;;
48853;SDS011;34673;52.808;17.856;2023-03-14T09:41:32;4.35;;;2.10;;
48853;SDS011;34673;52.808;17.856;2023-03-14T09:44:08;5.80;;;2.00;;
48853;SDS011;34673;52.808;17.856;2023-03-14T09:46:58;5.38;;;2.20;;
48853;SDS011;34673;52.808;17.856;2023-03-14T09:49:33;3.75;;;1.77;;
48853;SDS011;34673;52.808;17.856;2023-03-14T09:52:22;5.28;;;2.00;;
48853;SDS011;34673;52.808;17.856;2023-03-14T09:54:54;6.70;;;2.58;;
48853;SDS011;34673;52.808;17.856;2023-03-14T09:57:25;4.53;;;1.80;;
48853;SDS011;34673;52.808;17.856;2023-03-14T09:59:55;5.40;;;2.17;;
48853;SDS011;34673;52.808;17.856;2023-03-14T10:02:32;4.97;;;1.88;;
48853;SDS011;34673;52.808;17.856;2023-03-14T10:05:01;6.05;;;1.63;;
48853;SDS011;34673;52.808;17.856;2023-03-14T10:07:40;3.65;;;1.50;;
48853;SDS011;34673;52.808;17.856;2023-03-14T10:10:11;4.88;;;1.80;;
48853;SDS011;34673;52.808;17.856;2023-03-14T10:12:43;3.60;;;1.33;;
48853;SDS011;34673;52.808;17.856;2023-03-14T10:15:13;4.30;;;1.58;;
48853;SDS011;34673;52.808;17.856;2023-03-14T10:17:47;12.20;;;1.80;;
48853;SDS011;34673;52.808;17.856;2023-03-14T10:20:32;3.28;;;1.60;;
48853;SDS011;34673;52.808;17.856;2023-03-14T10:25:41;4.60;;;1.50;;
48853;SDS011;34673;52.808;17.856;2023-03-14T10:28:24;5.68;;;1.55;;
48853;SDS011;34673;52.808;17.856;2023-03-14T10:30:51;6.15;;;2.00;;
48853;SDS011;34673;52.808;17.856;2023-03-14T10:35:54;3.97;;;1.60;;
48853;SDS011;34673;52.808;17.856;2023-03-14T10:38:26;6.40;;;2.08;;
48853;SDS011;34673;52.808;17.856;2023-03-14T10:40:55;3.58;;;1.45;;
48853;SDS011;34673;52.808;17.856;2023-03-14T10:43:25;7.68;;;1.65;;
48853;SDS011;34673;52.808;17.856;2023-03-14T10:45:54;5.93;;;1.50;;
48853;SDS011;34673;52.808;17.856;2023-03-14T10:48:32;4.13;;;1.65;;
48853;SDS011;34673;52.808;17.856;2023-03-14T10:53:47;7.30;;;1.80;;
48853;SDS011;34673;52.808;17.856;2023-03-14T10:56:20;6.63;;;1.40;;
48853;SDS011;34673;52.808;17.856;2023-03-14T10:58:52;5.47;;;1.63;;
48853;SDS011;34673;52.808;17.856;2023-03-14T11:01:28;5.55;;;1.45;;
48853;SDS011;34673;52.808;17.856;2023-03-14T11:04:26;7.15;;;2.17;;
48853;SDS011;34673;52.808;17.856;2023-03-14T11:09:46;5.68;;;1.65;;
48853;SDS011;34673;52.808;17.856;2023-03-14T11:15:00;5.53;;;1.75;;
48853;SDS011;34673;52.808;17.856;2023-03-14T11:18:18;4.40;;;1.55;;
48853;SDS011;34673;52.808;17.856;2023-03-14T11:20:52;4.05;;;1.73;;
48853;SDS011;34673;52.808;17.856;2023-03-14T11:26:20;5.60;;;2.00;;
48853;SDS011;34673;52.808;17.856;2023-03-14T11:29:08;5.07;;;1.80;;
48853;SDS011;34673;52.808;17.856;2023-03-14T11:34:19;11.38;;;2.28;;
48853;SDS011;34673;52.808;17.856;2023-03-14T11:37:16;6.78;;;1.80;;
48853;SDS011;34673;52.808;17.856;2023-03-14T11:39:47;4.70;;;1.90;;
48853;SDS011;34673;52.808;17.856;2023-03-14T11:42:28;6.25;;;1.95;;
48853;SDS011;34673;52.808;17.856;2023-03-14T11:44:58;5.60;;;1.52;;
48853;SDS011;34673;52.808;17.856;2023-03-14T11:47:32;7.88;;;1.75;;
48853;SDS011;34673;52.808;17.856;2023-03-14T11:50:17;6.82;;;1.92;;
48853;SDS011;34673;52.808;17.856;2023-03-14T11:52:49;3.75;;;1.55;;
48853;SDS011;34673;52.808;17.856;2023-03-14T11:58:16;4.13;;;1.60;;
48853;SDS011;34673;52.808;17.856;2023-03-14T12:00:56;4.00;;;1.50;;
48853;SDS011;34673;52.808;17.856;2023-03-14T12:03:52;4.95;;;1.90;;
48853;SDS011;34673;52.808;17.856;2023-03-14T12:09:15;6.47;;;1.98;;
48853;SDS011;34673;52.808;17.856;2023-03-14T12:11:47;6.40;;;2.17;;
48853;SDS011;34673;52.808;17.856;2023-03-14T12:14:20;7.50;;;2.15;;
48853;SDS011;34673;52.808;17.856;2023-03-14T12:16:54;6.53;;;2.30;;
48853;SDS011;34673;52.808;17.856;2023-03-14T12:19:26;5.45;;;1.88;;
48853;SDS011;34673;52.808;17.856;2023-03-14T12:24:24;5.93;;;2.00;;
48853;SDS011;34673;52.808;17.856;2023-03-14T12:26:59;5.82;;;1.80;;
48853;SDS011;34673;52.808;17.856;2023-03-14T12:29:28;2.85;;;1.50;;
48853;SDS011;34673;52.808;17.856;2023-03-14T12:34:30;4.85;;;1.60;;
48853;SDS011;34673;52.808;17.856;2023-03-14T12:37:06;4.30;;;1.52;;
48853;SDS011;34673;52.808;17.856;2023-03-14T12:39:49;5.55;;;1.70;;
48853;SDS011;34673;52.808;17.856;2023-03-14T12:45:31;4.28;;;1.60;;
48853;SDS011;34673;52.808;17.856;2023-03-14T12:50:55;5.75;;;1.90;;
48853;SDS011;34673;52.808;17.856;2023-03-14T13:01:48;4.70;;;1.70;;
48853;SDS011;34673;52.808;17.856;2023-03-14T13:05:01;5.38;;;1.65;;
48853;SDS011;34673;52.808;17.856;2023-03-14T13:12:54;5.38;;;1.90;;
48853;SDS011;34673;52.808;17.856;2023-03-14T13:17:54;4.70;;;1.85;;
48853;SDS011;34673;52.808;17.856;2023-03-14T13:22:57;6.00;;;2.00;;
48853;SDS011;34673;52.808;17.856;2023-03-14T13:25:28;4.28;;;1.80;;
48853;SDS011;34673;52.808;17.856;2023-03-14T13:27:59;5.60;;;1.65;;
48853;SDS011;34673;52.808;17.856;2023-03-14T13:30:28;4.35;;;1.60;;
48853;SDS011;34673;52.808;17.856;2023-03-14T13:33:03;4.82;;;1.92;;
48853;SDS011;34673;52.808;17.856;2023-03-14T13:35:40;3.75;;;1.50;;
48853;SDS011;34673;52.808;17.856;2023-03-14T13:38:21;7.33;;;2.00;;
48853;SDS011;34673;52.808;17.856;2023-03-14T13:40:59;6.32;;;2.00;;
48853;SDS011;34673;52.808;17.856;2023-03-14T13:43:31;5.63;;;1.55;;
48853;SDS011;34673;52.808;17.856;2023-03-14T13:46:13;3.13;;;1.63;;
48853;SDS011;34673;52.808;17.856;2023-03-14T13:48:44;8.02;;;2.10;;
48853;SDS011;34673;52.808;17.856;2023-03-14T13:51:15;5.47;;;1.40;;
48853;SDS011;34673;52.808;17.856;2023-03-14T13:53:45;6.78;;;1.50;;
48853;SDS011;34673;52.808;17.856;2023-03-14T13:56:24;6.63;;;1.70;;
48853;SDS011;34673;52.808;17.856;2023-03-14T13:58:54;4.22;;;1.40;;
48853;SDS011;34673;52.808;17.856;2023-03-14T14:01:31;5.38;;;1.90;;
48853;SDS011;34673;52.808;17.856;2023-03-14T14:04:06;8.68;;;1.88;;
48853;SDS011;34673;52.808;17.856;2023-03-14T14:06:49;7.53;;;1.88;;
48853;SDS011;34673;52.808;17.856;2023-03-14T14:09:25;6.47;;;1.75;;
48853;SDS011;34673;52.808;17.856;2023-03-14T14:14:43;4.43;;;1.60;;
48853;SDS011;34673;52.808;17.856;2023-03-14T14:17:12;7.93;;;1.53;;
48853;SDS011;34673;52.808;17.856;2023-03-14T14:19:44;3.70;;;1.45;;
48853;SDS011;34673;52.808;17.856;2023-03-14T14:22:13;5.40;;;1.65;;
48853;SDS011;34673;52.808;17.856;2023-03-14T14:24:41;4.35;;;1.20;;
48853;SDS011;34673;52.808;17.856;2023-03-14T14:27:18;5.78;;;1.30;;
48853;SDS011;34673;52.808;17.856;2023-03-14T14:29:57;3.47;;;1.08;;
48853;SDS011;34673;52.808;17.856;2023-03-14T14:32:34;2.53;;;0.90;;
48853;SDS011;34673;52.808;17.856;2023-03-14T14:35:06;3.20;;;0.82;;
48853;SDS011;34673;52.808;17.856;2023-03-14T14:37:43;4.40;;;1.10;;
48853;SDS011;34673;52.808;17.856;2023-03-14T14:40:16;2.45;;;0.95;;
48853;SDS011;34673;52.808;17.856;2023-03-14T14:42:47;2.67;;;0.85;;
48853;SDS011;34673;52.808;17.856;2023-03-14T14:45:22;2.22;;;0.80;;
48853;SDS011;34673;52.808;17.856;2023-03-14T14:47:55;3.63;;;0.98;;
48853;SDS011;34673;52.808;17.856;2023-03-14T14:50:29;4.03;;;0.90;;
48853;SDS011;34673;52.808;17.856;2023-03-14T14:53:01;4.03;;;1.35;;
48853;SDS011;34673;52.808;17.856;2023-03-14T14:55:34;3.88;;;1.17;;
48853;SDS011;34673;52.808;17.856;2023-03-14T15:03:32;5.10;;;1.58;;
48853;SDS011;34673;52.808;17.856;2023-03-14T15:06:01;4.70;;;1.23;;
48853;SDS011;34673;52.808;17.856;2023-03-14T15:08:30;3.97;;;1.20;;
48853;SDS011;34673;52.808;17.856;2023-03-14T15:10:57;3.15;;;0.95;;
48853;SDS011;34673;52.808;17.856;2023-03-14T15:13:24;3.08;;;1.10;;
48853;SDS011;34673;52.808;17.856;2023-03-14T15:15:52;5.22;;;1.40;;
48853;SDS011;34673;52.808;17.856;2023-03-14T15:18:25;4.93;;;1.67;;
48853;SDS011;34673;52.808;17.856;2023-03-14T15:20:57;3.55;;;1.35;;
48853;SDS011;34673;52.808;17.856;2023-03-14T15:23:24;3.53;;;1.30;;
48853;SDS011;34673;52.808;17.856;2023-03-14T15:25:51;4.45;;;1.40;;
48853;SDS011;34673;52.808;17.856;2023-03-14T15:30:54;4.60;;;1.42;;
48853;SDS011;34673;52.808;17.856;2023-03-14T15:33:24;4.60;;;1.65;;
48853;SDS011;34673;52.808;17.856;2023-03-14T15:35:53;3.78;;;1.83;;
48853;SDS011;34673;52.808;17.856;2023-03-14T15:38:20;3.78;;;1.25;;
48853;SDS011;34673;52.808;17.856;2023-03-14T15:40:50;3.83;;;1.33;;
48853;SDS011;34673;52.808;17.856;2023-03-14T15:43:18;4.55;;;1.55;;
48853;SDS011;34673;52.808;17.856;2023-03-14T15:45:46;3.88;;;1.40;;
48853;SDS011;34673;52.808;17.856;2023-03-14T15:48:17;5.13;;;2.00;;
48853;SDS011;34673;52.808;17.856;2023-03-14T15:50:47;4.75;;;1.67;;
48853;SDS011;34673;52.808;17.856;2023-03-14T15:53:14;4.65;;;1.75;;
48853;SDS011;34673;52.808;17.856;2023-03-14T15:55:42;7.15;;;2.85;;
48853;SDS011;34673;52.808;17.856;2023-03-14T15:58:11;4.15;;;1.52;;
48853;SDS011;34673;52.808;17.856;2023-03-14T16:00:47;5.43;;;1.60;;
48853;SDS011;34673;52.808;17.856;2023-03-14T16:03:15;7.78;;;1.77;;
48853;SDS011;34673;52.808;17.856;2023-03-14T16:05:42;4.88;;;1.63;;
48853;SDS011;34673;52.808;17.856;2023-03-14T16:08:09;8.10;;;1.83;;
48853;SDS011;34673;52.808;17.856;2023-03-14T16:10:36;4.95;;;1.80;;
48853;SDS011;34673;52.808;17.856;2023-03-14T16:13:05;4.82;;;1.83;;
48853;SDS011;34673;52.808;17.856;2023-03-14T16:15:32;5.07;;;1.83;;
48853;SDS011;34673;52.808;17.856;2023-03-14T16:17:59;3.15;;;1.30;;
48853;SDS011;34673;52.808;17.856;2023-03-14T16:20:40;5.07;;;1.50;;
48853;SDS011;34673;52.808;17.856;2023-03-14T16:23:14;3.83;;;1.10;;
48853;SDS011;34673;52.808;17.856;2023-03-14T16:25:43;4.28;;;1.02;;